^^
Grace C. Lehan Memorial Weather Station Historical Data
Daily Summary for September 22, 2021 Units:  Both    English   Metric
Daily Weekly Monthly Yearly
  High: Low: Average:
Temperature: 74.6 °F /  23.7 °C 53.9 °F /  12.2 °C 63.4 °F /  17.4 °C
Dew Point: 60.3 °F /  15.7 °C 43.9 °F /  6.6 °C 55.2 °F /  12.9 °C
Humidity: 95% 53.2% 76%
Wind Speed: 5mph /  8km/h - 0.7mph /  1.1km/h
Wind Gust: 13mph /  20.9km/h - -
Wind- - WNW
Pressure: 29.91 in /  1012.8 hPa 29.70 in /  1005.6 hPa -
Precipitation: 0.01 in /  0.25 mm    
 
 
Tabular Data for September 22, 2021
Time Temperature Dew Point Pressure Wind Wind Speed Wind Gust Humidity Rainfall Rate (Hourly) solar
00:00 60.4 °F /  15.8 °C 58.4 °F /  14.7 °C 29.78in /  1008.4hPa Calm     93% 0.00in /  0mm 0 W/m2
00:09 60.3 °F /  15.7 °C 58.3 °F /  14.6 °C 29.78in /  1008.4hPa Calm     93% 0.00in /  0mm 0 W/m2
00:14 60.3 °F /  15.7 °C 58.3 °F /  14.6 °C 29.78in /  1008.4hPa Calm     93% 0.00in /  0mm 0 W/m2
00:19 60.2 °F /  15.7 °C 58.2 °F /  14.6 °C 29.77in /  1008hPa Calm     93% 0.00in /  0mm 0 W/m2
00:24 60.2 °F /  15.7 °C 58.1 °F /  14.5 °C 29.77in /  1008hPa Calm     93% 0.00in /  0mm 0 W/m2
00:29 60.1 °F /  15.6 °C 58.2 °F /  14.6 °C 29.77in /  1008hPa Calm     93.3% 0.00in /  0mm 0 W/m2
00:34 60.2 °F /  15.7 °C 58.5 °F /  14.7 °C 29.77in /  1008hPa Calm     94% 0.00in /  0mm 0 W/m2
00:39 60.3 °F /  15.7 °C 58.6 °F /  14.8 °C 29.77in /  1008hPa Calm     94% 0.00in /  0mm 0 W/m2
00:44 60.3 °F /  15.7 °C 58.6 °F /  14.8 °C 29.77in /  1008hPa Calm     94% 0.00in /  0mm 0 W/m2
00:49 60.3 °F /  15.7 °C 58.6 °F /  14.8 °C 29.77in /  1008hPa Calm     94% 0.00in /  0mm 0 W/m2
00:54 60.2 °F /  15.7 °C 58.5 °F /  14.7 °C 29.76in /  1007.7hPa Calm     94% 0.00in /  0mm 0 W/m2
00:59 60.2 °F /  15.7 °C 58.5 °F /  14.7 °C 29.76in /  1007.7hPa Calm     94% 0.00in /  0mm 0 W/m2
01:04 60.1 °F /  15.6 °C 58.4 °F /  14.7 °C 29.76in /  1007.7hPa Calm     94% 0.00in /  0mm 0 W/m2
01:09 60.2 °F /  15.7 °C 58.4 °F /  14.7 °C 29.76in /  1007.7hPa Calm     94% 0.00in /  0mm 0 W/m2
01:14 60.2 °F /  15.7 °C 58.5 °F /  14.7 °C 29.76in /  1007.7hPa Calm     94% 0.00in /  0mm 0 W/m2
01:19 60.2 °F /  15.7 °C 58.5 °F /  14.7 °C 29.76in /  1007.7hPa Calm     94% 0.00in /  0mm 0 W/m2
01:24 60.2 °F /  15.7 °C 58.5 °F /  14.7 °C 29.76in /  1007.7hPa Calm     94% 0.00in /  0mm 0 W/m2
01:29 60.4 °F /  15.8 °C 58.6 °F /  14.8 °C 29.75in /  1007.3hPa Calm     94% 0.00in /  0mm 0 W/m2
01:34 60.4 °F /  15.8 °C 58.7 °F /  14.8 °C 29.75in /  1007.3hPa Calm     94% 0.00in /  0mm 0 W/m2
01:39 60.5 °F /  15.8 °C 58.8 °F /  14.9 °C 29.75in /  1007.3hPa Calm     94% 0.00in /  0mm 0 W/m2
01:44 60.5 °F /  15.8 °C 58.8 °F /  14.9 °C 29.75in /  1007.3hPa Calm     94% 0.00in /  0mm 0 W/m2
01:49 60.6 °F /  15.9 °C 58.8 °F /  14.9 °C 29.75in /  1007.3hPa Calm     94% 0.00in /  0mm 0 W/m2
01:54 60.6 °F /  15.9 °C 58.9 °F /  14.9 °C 29.75in /  1007.3hPa Calm     94% 0.00in /  0mm 0 W/m2
01:59 60.6 °F /  15.9 °C 58.9 °F /  14.9 °C 29.74in /  1007hPa Calm     94% 0.00in /  0mm 0 W/m2
02:04 60.6 °F /  15.9 °C 58.9 °F /  14.9 °C 29.74in /  1007hPa Calm     94% 0.00in /  0mm 0 W/m2
02:09 60.6 °F /  15.9 °C 58.8 °F /  14.9 °C 29.74in /  1007hPa Calm     94% 0.00in /  0mm 0 W/m2
02:14 60.6 °F /  15.9 °C 59 °F /  15 °C 29.73in /  1006.7hPa Calm     94.3% 0.00in /  0mm 0 W/m2
02:19 60.7 °F /  15.9 °C 59.3 °F /  15.2 °C 29.73in /  1006.7hPa Calm     95% 0.00in /  0mm 0 W/m2
02:24 60.7 °F /  15.9 °C 59.3 °F /  15.2 °C 29.73in /  1006.7hPa Calm     95% 0.00in /  0mm 0 W/m2
02:29 60.8 °F /  16 °C 59.4 °F /  15.2 °C 29.73in /  1006.7hPa South 0.1mph /  0.2km/h 2mph /  3.2km/h 95% 0.00in /  0mm 0 W/m2
02:34 60.8 °F /  16 °C 59.4 °F /  15.2 °C 29.73in /  1006.7hPa Calm   2mph /  3.2km/h 95% 0.00in /  0mm 0 W/m2
02:39 60.8 °F /  16 °C 59.4 °F /  15.2 °C 29.73in /  1006.7hPa Calm   1mph /  1.6km/h 95% 0.00in /  0mm 0 W/m2
02:44 60.8 °F /  16 °C 59.4 °F /  15.2 °C 29.73in /  1006.7hPa Calm   1mph /  1.6km/h 95% 0.00in /  0mm 0 W/m2
02:49 60.9 °F /  16.1 °C 59.5 °F /  15.3 °C 29.73in /  1006.7hPa Calm   1mph /  1.6km/h 95% 0.00in /  0mm 0 W/m2
02:54 60.9 °F /  16.1 °C 59.5 °F /  15.3 °C 29.73in /  1006.7hPa Calm   1mph /  1.6km/h 95% 0.00in /  0mm 0 W/m2
02:59 60.9 °F /  16.1 °C 59.5 °F /  15.3 °C 29.73in /  1006.7hPa Calm   1mph /  1.6km/h 95% 0.00in /  0mm 0 W/m2
03:04 60.9 °F /  16.1 °C 59.5 °F /  15.3 °C 29.73in /  1006.7hPa Calm   1mph /  1.6km/h 95% 0.00in /  0mm 0 W/m2
03:09 60.9 °F /  16.1 °C 59.5 °F /  15.3 °C 29.73in /  1006.7hPa Calm     95% 0.00in /  0mm 0 W/m2
03:14 60.9 °F /  16.1 °C 59.5 °F /  15.3 °C 29.72in /  1006.3hPa Calm     95% 0.00in /  0mm 0 W/m2
03:19 60.8 °F /  16 °C 59.4 °F /  15.2 °C 29.72in /  1006.3hPa Calm     95% 0.00in /  0mm 0 W/m2
03:24 60.8 °F /  16 °C 59.4 °F /  15.2 °C 29.72in /  1006.3hPa Calm     95% 0.00in /  0mm 0 W/m2
03:29 60.8 °F /  16 °C 59.4 °F /  15.2 °C 29.72in /  1006.3hPa Calm     95% 0.00in /  0mm 0 W/m2
03:34 60.7 °F /  15.9 °C 59.1 °F /  15.1 °C 29.71in /  1006hPa Calm     94.4% 0.00in /  0mm 0 W/m2
03:39 60.7 °F /  15.9 °C 59 °F /  15 °C 29.71in /  1006hPa Calm     94% 0.00in /  0mm 0 W/m2
03:44 60.7 °F /  15.9 °C 58.9 °F /  14.9 °C 29.71in /  1006hPa Calm     94% 0.00in /  0mm 0 W/m2
03:49 60.6 °F /  15.9 °C 58.9 °F /  14.9 °C 29.71in /  1006hPa Calm     94% 0.00in /  0mm 0 W/m2
03:54 60.5 °F /  15.8 °C 58.8 °F /  14.9 °C 29.71in /  1006hPa Calm     94% 0.00in /  0mm 0 W/m2
03:59 60.4 °F /  15.8 °C 58.7 °F /  14.8 °C 29.71in /  1006hPa Calm     94% 0.00in /  0mm 0 W/m2
04:00 60.4 °F /  15.8 °C 58.7 °F /  14.8 °C 29.71in /  1006hPa Calm     94% 0.00in /  0mm 0 W/m2
04:09 60.4 °F /  15.8 °C 58.7 °F /  14.8 °C 29.71in /  1006hPa Calm     94% 0.00in /  0mm 0 W/m2
04:14 60.4 °F /  15.8 °C 58.7 °F /  14.8 °C 29.71in /  1006hPa South 0.2mph /  0.3km/h 3mph /  4.8km/h 94.1% 0.00in /  0mm 0 W/m2
04:19 60.4 °F /  15.8 °C 58.7 °F /  14.8 °C 29.70in /  1005.6hPa Calm   3mph /  4.8km/h 94% 0.00in /  0mm 0 W/m2
04:24 60.4 °F /  15.8 °C 58.7 °F /  14.8 °C 29.70in /  1005.6hPa Calm   3mph /  4.8km/h 94% 0.00in /  0mm 0 W/m2
04:29 60.4 °F /  15.8 °C 58.7 °F /  14.8 °C 29.70in /  1005.6hPa Calm   3mph /  4.8km/h 94% 0.00in /  0mm 0 W/m2
04:34 60.4 °F /  15.8 °C 58.7 °F /  14.8 °C 29.71in /  1006hPa Calm   3mph /  4.8km/h 94% 0.00in /  0mm 0 W/m2
04:39 60.3 °F /  15.7 °C 58.6 °F /  14.8 °C 29.71in /  1006hPa Calm     94% 0.00in /  0mm 0 W/m2
04:44 60.3 °F /  15.7 °C 58.6 °F /  14.8 °C 29.71in /  1006hPa Calm     94.1% 0.00in /  0mm 0 W/m2
04:49 60.4 °F /  15.8 °C 59 °F /  15 °C 29.71in /  1006hPa Calm     95% 0.00in /  0mm 0 W/m2
04:54 60.4 °F /  15.8 °C 59 °F /  15 °C 29.71in /  1006hPa Calm     95% 0.00in /  0mm 0 W/m2
04:59 60.5 °F /  15.8 °C 58.9 °F /  14.9 °C 29.72in /  1006.3hPa Calm     94.5% 0.00in /  0mm 0 W/m2
05:04 60.4 °F /  15.8 °C 58.7 °F /  14.8 °C 29.71in /  1006hPa Calm     94% 0.00in /  0mm 0 W/m2
05:09 60.4 °F /  15.8 °C 58.6 °F /  14.8 °C 29.72in /  1006.3hPa Calm     94% 0.00in /  0mm 0 W/m2
05:14 60.3 °F /  15.7 °C 58.5 °F /  14.7 °C 29.72in /  1006.3hPa Calm     94% 0.00in /  0mm 0 W/m2
05:19 60.2 °F /  15.7 °C 58.5 °F /  14.7 °C 29.71in /  1006hPa Calm     94% 0.00in /  0mm 0 W/m2
05:24 60.1 °F /  15.6 °C 58.4 °F /  14.7 °C 29.71in /  1006hPa Calm     94% 0.00in /  0mm 0 W/m2
05:29 60.1 °F /  15.6 °C 58.5 °F /  14.7 °C 29.72in /  1006.3hPa Calm     94.4% 0.00in /  0mm 0 W/m2
05:34 60.3 °F /  15.7 °C 58.8 °F /  14.9 °C 29.72in /  1006.3hPa Calm     95% 0.00in /  0mm 0 W/m2
05:39 60.4 °F /  15.8 °C 59 °F /  15 °C 29.72in /  1006.3hPa Calm     95% 0.00in /  0mm 0 W/m2
05:44 60.4 °F /  15.8 °C 59 °F /  15 °C 29.72in /  1006.3hPa Calm     95% 0.00in /  0mm 0 W/m2
05:49 60.5 °F /  15.8 °C 58.8 °F /  14.9 °C 29.72in /  1006.3hPa Calm     94.2% 0.00in /  0mm 0 W/m2
05:54 60.4 °F /  15.8 °C 58.7 °F /  14.8 °C 29.72in /  1006.3hPa Calm     94% 0.00in /  0mm 0 W/m2
05:59 60.3 °F /  15.7 °C 58.6 °F /  14.8 °C 29.72in /  1006.3hPa Calm     94% 0.00in /  0mm 0 W/m2
06:04 60.2 °F /  15.7 °C 58.5 °F /  14.7 °C 29.72in /  1006.3hPa Calm     94% 0.00in /  0mm 0 W/m2
06:09 60.1 °F /  15.6 °C 58.4 °F /  14.7 °C 29.72in /  1006.3hPa Calm     94% 0.00in /  0mm 0 W/m2
06:14 60 °F /  15.6 °C 58.3 °F /  14.6 °C 29.72in /  1006.3hPa Calm     94% 0.00in /  0mm 0 W/m2
06:19 59.9 °F /  15.5 °C 58.2 °F /  14.6 °C 29.72in /  1006.3hPa Calm     94% 0.00in /  0mm 0 W/m2
06:24 59.8 °F /  15.4 °C 58 °F /  14.4 °C 29.72in /  1006.3hPa Calm     94% 0.00in /  0mm 0 W/m2
06:29 59.7 °F /  15.4 °C 58 °F /  14.4 °C 29.72in /  1006.3hPa Calm     94% 0.00in /  0mm 0 W/m2
06:34 59.6 °F /  15.3 °C 57.9 °F /  14.4 °C 29.72in /  1006.3hPa Calm     94% 0.00in /  0mm 0 W/m2
06:39 59.6 °F /  15.3 °C 57.9 °F /  14.4 °C 29.72in /  1006.3hPa Calm     94% 0.00in /  0mm 0 W/m2
06:44 59.5 °F /  15.3 °C 57.8 °F /  14.3 °C 29.72in /  1006.3hPa Calm     94% 0.00in /  0mm 0 W/m2
06:49 59.5 °F /  15.3 °C 57.8 °F /  14.3 °C 29.73in /  1006.7hPa Calm     94% 0.00in /  0mm 0 W/m2
06:54 59.5 °F /  15.3 °C 57.8 °F /  14.3 °C 29.73in /  1006.7hPa Calm     94% 0.00in /  0mm 0 W/m2
06:59 59.5 °F /  15.3 °C 57.8 °F /  14.3 °C 29.73in /  1006.7hPa Calm     94% 0.00in /  0mm 0 W/m2
07:04 59.4 °F /  15.2 °C 57.7 °F /  14.3 °C 29.73in /  1006.7hPa Calm     94% 0.00in /  0mm 0 W/m2
07:09 59.3 °F /  15.2 °C 57.6 °F /  14.2 °C 29.74in /  1007hPa Calm     94% 0.00in /  0mm 0 W/m2
07:14 59.2 °F /  15.1 °C 57.5 °F /  14.2 °C 29.74in /  1007hPa Calm     94% 0.00in /  0mm 0 W/m2
07:19 59.1 °F /  15.1 °C 57.1 °F /  13.9 °C 29.74in /  1007hPa Calm     93% 0.00in /  0mm 0 W/m2
07:24 59 °F /  15 °C 57 °F /  13.9 °C 29.74in /  1007hPa Calm     93% 0.00in /  0mm 5 W/m2
07:29 58.9 °F /  14.9 °C 56.8 °F /  13.8 °C 29.74in /  1007hPa Calm     93% 0.00in /  0mm 7 W/m2
07:34 58.7 °F /  14.8 °C 56.7 °F /  13.7 °C 29.74in /  1007hPa Calm     93% 0.00in /  0mm 7 W/m2
07:39 58.6 °F /  14.8 °C 56.6 °F /  13.7 °C 29.75in /  1007.3hPa Calm     93% 0.00in /  0mm 11 W/m2
07:44 58.6 °F /  14.8 °C 56.6 °F /  13.7 °C 29.75in /  1007.3hPa Calm     93% 0.00in /  0mm 11 W/m2
07:49 58.5 °F /  14.7 °C 56.6 °F /  13.7 °C 29.76in /  1007.7hPa Calm     93.3% 0.00in /  0mm 21 W/m2
07:54 58.5 °F /  14.7 °C 56.5 °F /  13.6 °C 29.76in /  1007.7hPa Calm     93% 0.00in /  0mm 46 W/m2
07:59 58.5 °F /  14.7 °C 56.6 °F /  13.7 °C 29.76in /  1007.7hPa Calm     93.3% 0.00in /  0mm 54 W/m2
08:04 58.8 °F /  14.9 °C 57.1 °F /  13.9 °C 29.76in /  1007.7hPa Calm     94% 0.00in /  0mm 49 W/m2
08:09 58.8 °F /  14.9 °C 57.1 °F /  13.9 °C 29.76in /  1007.7hPa Calm     94% 0.00in /  0mm 63 W/m2
08:14 59.1 °F /  15.1 °C 57.3 °F /  14.1 °C 29.77in /  1008hPa Calm     94% 0.00in /  0mm 63 W/m2
08:19 59.4 °F /  15.2 °C 57.6 °F /  14.2 °C 29.77in /  1008hPa Calm     94% 0.00in /  0mm 51 W/m2
08:24 59.6 °F /  15.3 °C 57.9 °F /  14.4 °C 29.77in /  1008hPa Calm     94% 0.00in /  0mm 39 W/m2
08:29 59.8 °F /  15.4 °C 57.9 °F /  14.4 °C 29.78in /  1008.4hPa Calm     93.5% 0.00in /  0mm 37 W/m2
08:34 59.8 °F /  15.4 °C 57.8 °F /  14.3 °C 29.78in /  1008.4hPa SW 0.3mph /  0.5km/h 5mph /  8km/h 93% 0.00in /  0mm 21 W/m2
08:39 59.8 °F /  15.4 °C 57.4 °F /  14.1 °C 29.78in /  1008.4hPa Calm   5mph /  8km/h 92% 0.00in /  0mm 28 W/m2
08:44 59.8 °F /  15.4 °C 57.2 °F /  14 °C 29.78in /  1008.4hPa WSW 0.1mph /  0.2km/h 5mph /  8km/h 91.2% 0.00in /  0mm 28 W/m2
08:49 59.8 °F /  15.4 °C 57.2 °F /  14 °C 29.79in /  1008.7hPa Calm   5mph /  8km/h 91% 0.00in /  0mm 199 W/m2
08:54 60.1 °F /  15.6 °C 57.5 °F /  14.2 °C 29.79in /  1008.7hPa Calm   5mph /  8km/h 91% 0.00in /  0mm 172 W/m2
08:59 60.5 °F /  15.8 °C 57.7 °F /  14.3 °C 29.79in /  1008.7hPa Calm   5mph /  8km/h 90.3% 0.00in /  0mm 197 W/m2
09:04 61 °F /  16.1 °C 58.1 °F /  14.5 °C 29.79in /  1008.7hPa Calm   5mph /  8km/h 90% 0.00in /  0mm 279 W/m2
09:09 61.8 °F /  16.6 °C 58.5 °F /  14.7 °C 29.79in /  1008.7hPa WSW 0.5mph /  0.8km/h 6mph /  9.7km/h 88.8% 0.00in /  0mm 292 W/m2
09:14 62.9 °F /  17.2 °C 59 °F /  15 °C 29.79in /  1008.7hPa WSW 0.3mph /  0.5km/h 7mph /  11.3km/h 87.3% 0.00in /  0mm 309 W/m2
09:19 64 °F /  17.8 °C 59.4 °F /  15.2 °C 29.80in /  1009hPa WSW 0.7mph /  1.1km/h 9mph /  14.5km/h 84.9% 0.00in /  0mm 309 W/m2
09:24 65 °F /  18.3 °C 59.5 °F /  15.3 °C 29.80in /  1009hPa Calm   9mph /  14.5km/h 82.2% 0.00in /  0mm 329 W/m2
09:29 66 °F /  18.9 °C 59.8 °F /  15.4 °C 29.80in /  1009hPa WSW 0.1mph /  0.2km/h 9mph /  14.5km/h 80.4% 0.00in /  0mm 343 W/m2
09:34 66.8 °F /  19.3 °C 60 °F /  15.6 °C 29.80in /  1009hPa West 0.9mph /  1.4km/h 9mph /  14.5km/h 78.8% 0.00in /  0mm 357 W/m2
09:39 67.6 °F /  19.8 °C 59.9 °F /  15.5 °C 29.80in /  1009hPa WSW 0.2mph /  0.3km/h 6mph /  9.7km/h 76.5% 0.00in /  0mm 381 W/m2
09:44 68.3 °F /  20.2 °C 60.2 °F /  15.7 °C 29.80in /  1009hPa WSW 0.1mph /  0.2km/h 6mph /  9.7km/h 75.5% 0.00in /  0mm 385 W/m2
09:49 68.9 °F /  20.5 °C 60.3 °F /  15.7 °C 29.80in /  1009hPa WSW 0.4mph /  0.6km/h 6mph /  9.7km/h 74.1% 0.00in /  0mm 362 W/m2
09:54 69.4 °F /  20.8 °C 60.2 °F /  15.7 °C 29.80in /  1009hPa WSW 0.1mph /  0.2km/h 6mph /  9.7km/h 72.4% 0.00in /  0mm 380 W/m2
09:59 69.9 °F /  21.1 °C 60.1 °F /  15.6 °C 29.80in /  1009hPa Calm   6mph /  9.7km/h 71.1% 0.00in /  0mm 427 W/m2
10:04 70.3 °F /  21.3 °C 59.9 °F /  15.5 °C 29.80in /  1009hPa WSW 0.9mph /  1.4km/h 6mph /  9.7km/h 69.7% 0.00in /  0mm 434 W/m2
10:09 70.6 °F /  21.4 °C 59.5 °F /  15.3 °C 29.80in /  1009hPa WSW 0.6mph /  1km/h 6mph /  9.7km/h 68% 0.00in /  0mm 454 W/m2
10:14 70.6 °F /  21.4 °C 59.3 °F /  15.2 °C 29.80in /  1009hPa WSW 0.8mph /  1.3km/h 7mph /  11.3km/h 67.3% 0.00in /  0mm 478 W/m2
10:19 70.7 °F /  21.5 °C 59.3 °F /  15.2 °C 29.81in /  1009.4hPa West 2.3mph /  3.7km/h 12mph /  19.3km/h 67% 0.00in /  0mm 492 W/m2
10:24 70.9 °F /  21.6 °C 59 °F /  15 °C 29.81in /  1009.4hPa West 3.3mph /  5.3km/h 12mph /  19.3km/h 66% 0.00in /  0mm 506 W/m2
10:29 71.1 °F /  21.7 °C 58.7 °F /  14.8 °C 29.80in /  1009hPa WNW 2.6mph /  4.2km/h 12mph /  19.3km/h 64.9% 0.00in /  0mm 510 W/m2
10:34 71.3 °F /  21.8 °C 58.7 °F /  14.8 °C 29.81in /  1009.4hPa WNW 0.5mph /  0.8km/h 12mph /  19.3km/h 64.4% 0.00in /  0mm 533 W/m2
10:39 71.8 °F /  22.1 °C 59.4 °F /  15.2 °C 29.81in /  1009.4hPa WSW 0.4mph /  0.6km/h 4mph /  6.4km/h 65% 0.00in /  0mm 543 W/m2
10:44 72.2 °F /  22.3 °C 58.6 °F /  14.8 °C 29.80in /  1009hPa West 3.4mph /  5.5km/h 9mph /  14.5km/h 62.3% 0.00in /  0mm 543 W/m2
10:49 72.2 °F /  22.3 °C 58.1 °F /  14.5 °C 29.81in /  1009.4hPa West 1.3mph /  2.1km/h 9mph /  14.5km/h 61% 0.00in /  0mm 555 W/m2
10:54 72.3 °F /  22.4 °C 57.9 °F /  14.4 °C 29.81in /  1009.4hPa WSW 2.2mph /  3.5km/h 9mph /  14.5km/h 60.6% 0.00in /  0mm 568 W/m2
10:59 72.5 °F /  22.5 °C 57.9 °F /  14.4 °C 29.81in /  1009.4hPa West 2.3mph /  3.7km/h 9mph /  14.5km/h 60.2% 0.00in /  0mm 575 W/m2
11:04 72.6 °F /  22.6 °C 57.7 °F /  14.3 °C 29.81in /  1009.4hPa WSW 1.5mph /  2.4km/h 10mph /  16.1km/h 59.5% 0.00in /  0mm 577 W/m2
11:09 72.7 °F /  22.6 °C 57.5 °F /  14.2 °C 29.81in /  1009.4hPa WSW 1.7mph /  2.7km/h 10mph /  16.1km/h 58.9% 0.00in /  0mm 563 W/m2
11:14 73 °F /  22.8 °C 57.7 °F /  14.3 °C 29.81in /  1009.4hPa West 2.4mph /  3.9km/h 10mph /  16.1km/h 58.8% 0.00in /  0mm 378 W/m2
11:19 73.3 °F /  22.9 °C 57.5 °F /  14.2 °C 29.81in /  1009.4hPa WNW 2.9mph /  4.7km/h 10mph /  16.1km/h 57.7% 0.00in /  0mm 439 W/m2
11:24 73.4 °F /  23 °C 56.9 °F /  13.8 °C 29.81in /  1009.4hPa WNW 1.2mph /  1.9km/h 10mph /  16.1km/h 56.2% 0.00in /  0mm 313 W/m2
11:29 73.6 °F /  23.1 °C 57.3 °F /  14.1 °C 29.81in /  1009.4hPa West 3mph /  4.8km/h 10mph /  16.1km/h 56.7% 0.00in /  0mm 322 W/m2
11:34 73.8 °F /  23.2 °C 57.5 °F /  14.2 °C 29.81in /  1009.4hPa WNW 2.5mph /  4km/h 10mph /  16.1km/h 56.7% 0.00in /  0mm 582 W/m2
11:39 74.2 °F /  23.4 °C 57.2 °F /  14 °C 29.81in /  1009.4hPa WNW 2.6mph /  4.2km/h 9mph /  14.5km/h 55.5% 0.00in /  0mm 612 W/m2
11:44 74.6 °F /  23.7 °C 57 °F /  13.9 °C 29.81in /  1009.4hPa WNW 1.5mph /  2.4km/h 9mph /  14.5km/h 54.3% 0.00in /  0mm 378 W/m2
11:49 74.5 °F /  23.6 °C 56.6 °F /  13.7 °C 29.81in /  1009.4hPa WNW 1.6mph /  2.6km/h 9mph /  14.5km/h 53.5% 0.00in /  0mm 158 W/m2
11:54 73.8 °F /  23.2 °C 55.7 °F /  13.2 °C 29.82in /  1009.7hPa WNW 1.7mph /  2.7km/h 9mph /  14.5km/h 53.2% 0.00in /  0mm 128 W/m2
11:59 72.9 °F /  22.7 °C 55.6 °F /  13.1 °C 29.81in /  1009.4hPa WNW 1.8mph /  2.9km/h 9mph /  14.5km/h 54.5% 0.00in /  0mm 167 W/m2
12:00 72.5 °F /  22.5 °C 54.9 °F /  12.7 °C 29.81in /  1009.4hPa WNW 1mph /  1.6km/h 9mph /  14.5km/h 54% 0.00in /  0mm 167 W/m2
12:09 71.7 °F /  22.1 °C 55.2 °F /  12.9 °C 29.82in /  1009.7hPa NW 1.2mph /  1.9km/h 5mph /  8km/h 56% 0.00in /  0mm 211 W/m2
12:14 71.5 °F /  21.9 °C 54.9 °F /  12.7 °C 29.82in /  1009.7hPa NW 0.7mph /  1.1km/h 5mph /  8km/h 55.7% 0.00in /  0mm 211 W/m2
12:19 71.3 °F /  21.8 °C 55.2 °F /  12.9 °C 29.81in /  1009.4hPa NW 0.6mph /  1km/h 5mph /  8km/h 56.6% 0.00in /  0mm 109 W/m2
12:24 71.1 °F /  21.7 °C 55.9 °F /  13.3 °C 29.81in /  1009.4hPa NW 0.3mph /  0.5km/h 5mph /  8km/h 58.5% 0.00in /  0mm 279 W/m2
12:29 71.1 °F /  21.7 °C 55.7 °F /  13.2 °C 29.81in /  1009.4hPa NW 0.6mph /  1km/h 5mph /  8km/h 58.3% 0.00in /  0mm 258 W/m2
12:34 71 °F /  21.7 °C 55.5 °F /  13.1 °C 29.81in /  1009.4hPa WNW 0.6mph /  1km/h 5mph /  8km/h 58% 0.00in /  0mm 195 W/m2
12:39 71.1 °F /  21.7 °C 56.5 °F /  13.6 °C 29.81in /  1009.4hPa WNW 0.4mph /  0.6km/h 3mph /  4.8km/h 59.9% 0.00in /  0mm 220 W/m2
12:44 71 °F /  21.7 °C 55.5 °F /  13.1 °C 29.81in /  1009.4hPa West 1.4mph /  2.3km/h 9mph /  14.5km/h 58.1% 0.00in /  0mm 185 W/m2
12:49 70.7 °F /  21.5 °C 54.6 °F /  12.6 °C 29.81in /  1009.4hPa West 1.6mph /  2.6km/h 9mph /  14.5km/h 56.6% 0.00in /  0mm 176 W/m2
12:54 70.5 °F /  21.4 °C 54.5 °F /  12.5 °C 29.81in /  1009.4hPa West 1.3mph /  2.1km/h 9mph /  14.5km/h 56.9% 0.00in /  0mm 207 W/m2
12:59 70.4 °F /  21.3 °C 54.8 °F /  12.7 °C 29.81in /  1009.4hPa WSW 0.9mph /  1.4km/h 9mph /  14.5km/h 57.9% 0.00in /  0mm 200 W/m2
13:04 70.3 °F /  21.3 °C 54.5 °F /  12.5 °C 29.81in /  1009.4hPa West 1mph /  1.6km/h 9mph /  14.5km/h 57.3% 0.00in /  0mm 167 W/m2
13:09 70.3 °F /  21.3 °C 55.2 °F /  12.9 °C 29.81in /  1009.4hPa West 1.1mph /  1.8km/h 5mph /  8km/h 58.7% 0.00in /  0mm 137 W/m2
13:14 70.1 °F /  21.2 °C 54.2 °F /  12.3 °C 29.81in /  1009.4hPa West 1.4mph /  2.3km/h 5mph /  8km/h 57% 0.00in /  0mm 107 W/m2
13:19 70 °F /  21.1 °C 54.4 °F /  12.4 °C 29.81in /  1009.4hPa West 0.8mph /  1.3km/h 5mph /  8km/h 57.6% 0.00in /  0mm 243 W/m2
13:24 70 °F /  21.1 °C 54.4 °F /  12.4 °C 29.81in /  1009.4hPa Calm   5mph /  8km/h 57.7% 0.00in /  0mm 265 W/m2
13:29 70.4 °F /  21.3 °C 55.2 °F /  12.9 °C 29.81in /  1009.4hPa Calm   5mph /  8km/h 58.6% 0.00in /  0mm 462 W/m2
13:34 71 °F /  21.7 °C 55.3 °F /  12.9 °C 29.81in /  1009.4hPa WNW 2.2mph /  3.5km/h 6mph /  9.7km/h 57.6% 0.00in /  0mm 146 W/m2
13:39 71.4 °F /  21.9 °C 54.9 °F /  12.7 °C 29.81in /  1009.4hPa WNW 1.5mph /  2.4km/h 6mph /  9.7km/h 56% 0.00in /  0mm 169 W/m2
13:44 71.4 °F /  21.9 °C 54.8 °F /  12.7 °C 29.81in /  1009.4hPa Calm   6mph /  9.7km/h 55.9% 0.00in /  0mm 169 W/m2
13:49 71.3 °F /  21.8 °C 55.3 °F /  12.9 °C 29.81in /  1009.4hPa WNW 0.3mph /  0.5km/h 6mph /  9.7km/h 57.2% 0.00in /  0mm 165 W/m2
13:54 71.2 °F /  21.8 °C 55.2 °F /  12.9 °C 29.81in /  1009.4hPa WNW 1.3mph /  2.1km/h 6mph /  9.7km/h 57.1% 0.00in /  0mm 169 W/m2
13:59 71 °F /  21.7 °C 54.6 °F /  12.6 °C 29.81in /  1009.4hPa WNW 0.9mph /  1.4km/h 6mph /  9.7km/h 56.2% 0.00in /  0mm 144 W/m2
14:04 70.9 °F /  21.6 °C 54.8 °F /  12.7 °C 29.81in /  1009.4hPa Calm   6mph /  9.7km/h 56.8% 0.00in /  0mm 149 W/m2
14:09 70.8 °F /  21.6 °C 54.6 °F /  12.6 °C 29.81in /  1009.4hPa Calm   1mph /  1.6km/h 56.5% 0.00in /  0mm 206 W/m2
14:14 70.9 °F /  21.6 °C 55 °F /  12.8 °C 29.81in /  1009.4hPa Calm   1mph /  1.6km/h 57.2% 0.00in /  0mm 178 W/m2
14:19 70.9 °F /  21.6 °C 54.9 °F /  12.7 °C 29.81in /  1009.4hPa West 1mph /  1.6km/h 5mph /  8km/h 57% 0.00in /  0mm 181 W/m2
14:24 71 °F /  21.7 °C 55.1 °F /  12.8 °C 29.81in /  1009.4hPa Calm   5mph /  8km/h 57.3% 0.00in /  0mm 167 W/m2
14:29 71 °F /  21.7 °C 55.4 °F /  13 °C 29.80in /  1009hPa Calm   5mph /  8km/h 57.7% 0.00in /  0mm 155 W/m2
14:34 71 °F /  21.7 °C 54.8 °F /  12.7 °C 29.80in /  1009hPa West 0.1mph /  0.2km/h 5mph /  8km/h 56.5% 0.00in /  0mm 139 W/m2
14:39 70.9 °F /  21.6 °C 54.7 °F /  12.6 °C 29.80in /  1009hPa WNW 0.5mph /  0.8km/h 7mph /  11.3km/h 56.4% 0.00in /  0mm 144 W/m2
14:44 70.8 °F /  21.6 °C 54.7 °F /  12.6 °C 29.80in /  1009hPa WNW 1.6mph /  2.6km/h 7mph /  11.3km/h 56.9% 0.00in /  0mm 156 W/m2
14:49 70.6 °F /  21.4 °C 54.6 °F /  12.6 °C 29.80in /  1009hPa WNW 2.3mph /  3.7km/h 7mph /  11.3km/h 57% 0.00in /  0mm 169 W/m2
14:54 70.5 °F /  21.4 °C 55 °F /  12.8 °C 29.80in /  1009hPa WNW 0.6mph /  1km/h 7mph /  11.3km/h 57.9% 0.00in /  0mm 229 W/m2
14:59 70.6 °F /  21.4 °C 55.1 °F /  12.8 °C 29.81in /  1009.4hPa WNW 1.1mph /  1.8km/h 7mph /  11.3km/h 58.1% 0.00in /  0mm 167 W/m2
15:04 70.7 °F /  21.5 °C 55 °F /  12.8 °C 29.81in /  1009.4hPa WNW 0.4mph /  0.6km/h 7mph /  11.3km/h 57.6% 0.00in /  0mm 176 W/m2
15:09 70.8 °F /  21.6 °C 55.7 °F /  13.2 °C 29.81in /  1009.4hPa WNW 1mph /  1.6km/h 6mph /  9.7km/h 58.9% 0.00in /  0mm 146 W/m2
15:14 70.8 °F /  21.6 °C 55.7 °F /  13.2 °C 29.81in /  1009.4hPa NW 1.2mph /  1.9km/h 6mph /  9.7km/h 58.8% 0.00in /  0mm 88 W/m2
15:19 70.4 °F /  21.3 °C 55.4 °F /  13 °C 29.81in /  1009.4hPa NW 1.9mph /  3.1km/h 6mph /  9.7km/h 59% 0.00in /  0mm 62 W/m2
15:24 70 °F /  21.1 °C 55.3 °F /  12.9 °C 29.81in /  1009.4hPa NW 1.3mph /  2.1km/h 6mph /  9.7km/h 59.7% 0.00in /  0mm 76 W/m2
15:29 69.5 °F /  20.8 °C 55.4 °F /  13 °C 29.81in /  1009.4hPa NW 1.3mph /  2.1km/h 6mph /  9.7km/h 60.8% 0.00in /  0mm 102 W/m2
15:34 69.1 °F /  20.6 °C 55.2 °F /  12.9 °C 29.81in /  1009.4hPa WNW 1.8mph /  2.9km/h 6mph /  9.7km/h 61.1% 0.00in /  0mm 109 W/m2
15:39 68.8 °F /  20.4 °C 55 °F /  12.8 °C 29.81in /  1009.4hPa WNW 2.3mph /  3.7km/h 7mph /  11.3km/h 61.4% 0.00in /  0mm 114 W/m2
15:44 68.5 °F /  20.3 °C 55 °F /  12.8 °C 29.81in /  1009.4hPa NW 3.2mph /  5.1km/h 7mph /  11.3km/h 62% 0.00in /  0mm 118 W/m2
15:49 68.3 °F /  20.2 °C 54.9 °F /  12.7 °C 29.81in /  1009.4hPa NW 2mph /  3.2km/h 7mph /  11.3km/h 62.2% 0.00in /  0mm 120 W/m2
15:54 68.3 °F /  20.2 °C 55.2 °F /  12.9 °C 29.81in /  1009.4hPa NNW 1.2mph /  1.9km/h 7mph /  11.3km/h 63% 0.00in /  0mm 116 W/m2
15:59 68.3 °F /  20.2 °C 55.3 °F /  12.9 °C 29.82in /  1009.7hPa NW 2mph /  3.2km/h 7mph /  11.3km/h 63.2% 0.00in /  0mm 114 W/m2
16:00 68.2 °F /  20.1 °C 55.1 °F /  12.8 °C 29.82in /  1009.7hPa WNW 5mph /  8km/h 7mph /  11.3km/h 63% 0.00in /  0mm 102 W/m2
16:09 67.9 °F /  19.9 °C 54.8 °F /  12.7 °C 29.81in /  1009.4hPa WNW 2.2mph /  3.5km/h 7mph /  11.3km/h 62.9% 0.00in /  0mm 102 W/m2
16:14 67.7 °F /  19.8 °C 54.8 °F /  12.7 °C 29.81in /  1009.4hPa WNW 1.6mph /  2.6km/h 7mph /  11.3km/h 63.3% 0.00in /  0mm 88 W/m2
16:19 67.7 °F /  19.8 °C 55.3 °F /  12.9 °C 29.81in /  1009.4hPa WNW 2.1mph /  3.4km/h 7mph /  11.3km/h 64.7% 0.00in /  0mm 97 W/m2
16:24 67.6 °F /  19.8 °C 55 °F /  12.8 °C 29.81in /  1009.4hPa WNW 2mph /  3.2km/h 7mph /  11.3km/h 64.1% 0.00in /  0mm 83 W/m2
16:29 67.4 °F /  19.7 °C 55.1 °F /  12.8 °C 29.82in /  1009.7hPa West 1.9mph /  3.1km/h 7mph /  11.3km/h 64.5% 0.00in /  0mm 77 W/m2
16:34 67.4 °F /  19.7 °C 55.2 °F /  12.9 °C 29.82in /  1009.7hPa WNW 1.2mph /  1.9km/h 7mph /  11.3km/h 65% 0.00in /  0mm 81 W/m2
16:39 67.4 °F /  19.7 °C 55.4 °F /  13 °C 29.82in /  1009.7hPa WNW 0.2mph /  0.3km/h 5mph /  8km/h 65.5% 0.00in /  0mm 77 W/m2
16:44 67.4 °F /  19.7 °C 55.7 °F /  13.2 °C 29.82in /  1009.7hPa WNW 0.8mph /  1.3km/h 5mph /  8km/h 66% 0.00in /  0mm 69 W/m2
16:49 67.5 °F /  19.7 °C 55.7 °F /  13.2 °C 29.82in /  1009.7hPa WNW 0.3mph /  0.5km/h 5mph /  8km/h 65.8% 0.00in /  0mm 62 W/m2
16:54 67.5 °F /  19.7 °C 55.6 °F /  13.1 °C 29.82in /  1009.7hPa Calm   5mph /  8km/h 65.8% 0.00in /  0mm 54 W/m2
16:59 67.4 °F /  19.7 °C 55.4 °F /  13 °C 29.83in /  1010hPa WNW 1.7mph /  2.7km/h 6mph /  9.7km/h 65.5% 0.00in /  0mm 44 W/m2
17:04 67.2 °F /  19.6 °C 55.3 °F /  12.9 °C 29.83in /  1010hPa WNW 3.4mph /  5.5km/h 10mph /  16.1km/h 65.7% 0.00in /  0mm 40 W/m2
17:09 66.9 °F /  19.4 °C 55.5 °F /  13.1 °C 29.83in /  1010hPa WNW 1.3mph /  2.1km/h 10mph /  16.1km/h 66.6% 0.00in /  0mm 35 W/m2
17:14 66.7 °F /  19.3 °C 55.3 °F /  12.9 °C 29.83in /  1010hPa WNW 1.6mph /  2.6km/h 10mph /  16.1km/h 66.7% 0.00in /  0mm 35 W/m2
17:19 66.5 °F /  19.2 °C 55.2 °F /  12.9 °C 29.83in /  1010hPa NNW 1.7mph /  2.7km/h 10mph /  16.1km/h 67% 0.00in /  0mm 32 W/m2
17:24 66.3 °F /  19.1 °C 55.1 °F /  12.8 °C 29.83in /  1010hPa NNW 0.8mph /  1.3km/h 10mph /  16.1km/h 67.2% 0.00in /  0mm 25 W/m2
17:29 66.1 °F /  18.9 °C 54.8 °F /  12.7 °C 29.83in /  1010hPa North 1.2mph /  1.9km/h 10mph /  16.1km/h 67% 0.01in /  0.25mm 18 W/m2
17:34 65.9 °F /  18.8 °C 54.6 °F /  12.6 °C 29.83in /  1010hPa North 1.2mph /  1.9km/h 10mph /  16.1km/h 67% 0.01in /  0.25mm 16 W/m2
17:39 65.7 °F /  18.7 °C 54.8 °F /  12.7 °C 29.84in /  1010.4hPa North 0.8mph /  1.3km/h 5mph /  8km/h 67.7% 0.01in /  0.25mm 12 W/m2
17:44 65.5 °F /  18.6 °C 54.6 °F /  12.6 °C 29.84in /  1010.4hPa Calm   5mph /  8km/h 67.7% 0.01in /  0.25mm 9 W/m2
17:49 65.3 °F /  18.5 °C 54.4 °F /  12.4 °C 29.84in /  1010.4hPa West 1mph /  1.6km/h 5mph /  8km/h 67.8% 0.01in /  0.25mm 7 W/m2
17:54 65.2 °F /  18.4 °C 54.3 °F /  12.4 °C 29.84in /  1010.4hPa West 0.6mph /  1km/h 5mph /  8km/h 67.8% 0.01in /  0.25mm 5 W/m2
17:59 65 °F /  18.3 °C 54.2 °F /  12.3 °C 29.84in /  1010.4hPa Calm   5mph /  8km/h 68% 0.01in /  0.25mm 0 W/m2
18:04 64.8 °F /  18.2 °C 54.1 °F /  12.3 °C 29.84in /  1010.4hPa Calm   5mph /  8km/h 68.1% 0.01in /  0.25mm 0 W/m2
18:09 64.6 °F /  18.1 °C 54.3 °F /  12.4 °C 29.84in /  1010.4hPa Calm     69% 0.01in /  0.25mm 0 W/m2
18:14 64.5 °F /  18.1 °C 54.1 °F /  12.3 °C 29.84in /  1010.4hPa Calm     69% 0.01in /  0.25mm 0 W/m2
18:19 64.3 °F /  17.9 °C 54.3 °F /  12.4 °C 29.85in /  1010.7hPa Calm     69.8% 0.01in /  0.25mm 0 W/m2
18:24 64.1 °F /  17.8 °C 54 °F /  12.2 °C 29.85in /  1010.7hPa Calm     69.5% 0.01in /  0.25mm 0 W/m2
18:29 64 °F /  17.8 °C 54 °F /  12.2 °C 29.85in /  1010.7hPa Calm     70% 0.01in /  0.25mm 0 W/m2
18:34 63.8 °F /  17.7 °C 53.8 °F /  12.1 °C 29.85in /  1010.7hPa Calm     69.8% 0.01in /  0.25mm 0 W/m2
18:39 63.6 °F /  17.6 °C 53.6 °F /  12 °C 29.85in /  1010.7hPa WNW 0.6mph /  1km/h 7mph /  11.3km/h 70% 0.00in /  0mm 0 W/m2
18:44 63.4 °F /  17.4 °C 53.3 °F /  11.8 °C 29.86in /  1011.1hPa WNW 1.2mph /  1.9km/h 7mph /  11.3km/h 69.5% 0.00in /  0mm 0 W/m2
18:49 63.2 °F /  17.3 °C 53 °F /  11.7 °C 29.86in /  1011.1hPa WNW 0.3mph /  0.5km/h 7mph /  11.3km/h 69.1% 0.00in /  0mm 0 W/m2
18:54 63.1 °F /  17.3 °C 53.2 °F /  11.8 °C 29.86in /  1011.1hPa Calm   7mph /  11.3km/h 70% 0.00in /  0mm 0 W/m2
18:59 63 °F /  17.2 °C 53.1 °F /  11.7 °C 29.86in /  1011.1hPa Calm   7mph /  11.3km/h 70% 0.00in /  0mm 0 W/m2
19:04 62.9 °F /  17.2 °C 52.7 °F /  11.5 °C 29.86in /  1011.1hPa Calm   7mph /  11.3km/h 69.5% 0.00in /  0mm 0 W/m2
19:09 62.7 °F /  17.1 °C 52.5 °F /  11.4 °C 29.86in /  1011.1hPa WNW 1.5mph /  2.4km/h 9mph /  14.5km/h 69.2% 0.00in /  0mm 0 W/m2
19:14 62.6 °F /  17 °C 52.1 °F /  11.2 °C 29.86in /  1011.1hPa NNW 1mph /  1.6km/h 9mph /  14.5km/h 68.7% 0.00in /  0mm 0 W/m2
19:19 62.4 °F /  16.9 °C 51.7 °F /  10.9 °C 29.87in /  1011.4hPa WNW 3mph /  4.8km/h 12mph /  19.3km/h 67.9% 0.00in /  0mm 0 W/m2
19:24 62.2 °F /  16.8 °C 51.3 °F /  10.7 °C 29.87in /  1011.4hPa NW 2.4mph /  3.9km/h 12mph /  19.3km/h 67.5% 0.00in /  0mm 0 W/m2
19:29 62 °F /  16.7 °C 51.4 °F /  10.8 °C 29.87in /  1011.4hPa NW 2mph /  3.2km/h 12mph /  19.3km/h 68% 0.00in /  0mm 0 W/m2
19:34 61.8 °F /  16.6 °C 50.8 °F /  10.4 °C 29.87in /  1011.4hPa NW 4.5mph /  7.2km/h 12mph /  19.3km/h 67.2% 0.00in /  0mm 0 W/m2
19:39 61.6 °F /  16.4 °C 50.5 °F /  10.3 °C 29.88in /  1011.7hPa WNW 2.6mph /  4.2km/h 10mph /  16.1km/h 67.1% 0.00in /  0mm 0 W/m2
19:44 61.4 °F /  16.3 °C 50.7 °F /  10.4 °C 29.88in /  1011.7hPa WNW 0.5mph /  0.8km/h 10mph /  16.1km/h 68% 0.00in /  0mm 0 W/m2
19:49 61.2 °F /  16.2 °C 50.6 °F /  10.3 °C 29.88in /  1011.7hPa Calm   10mph /  16.1km/h 68% 0.00in /  0mm 0 W/m2
19:54 61.1 °F /  16.2 °C 50.5 °F /  10.3 °C 29.88in /  1011.7hPa Calm   10mph /  16.1km/h 68% 0.00in /  0mm 0 W/m2
19:59 61 °F /  16.1 °C 50.3 °F /  10.2 °C 29.89in /  1012.1hPa NW 1.4mph /  2.3km/h 10mph /  16.1km/h 68% 0.00in /  0mm 0 W/m2
20:00 60.9 °F /  16.1 °C 50.3 °F /  10.2 °C 29.89in /  1012.1hPa NW 1mph /  1.6km/h 10mph /  16.1km/h 68% 0.00in /  0mm 0 W/m2
20:09 60.8 °F /  16 °C 50.2 °F /  10.1 °C 29.89in /  1012.1hPa NW 0.6mph /  1km/h 7mph /  11.3km/h 68% 0.00in /  0mm 0 W/m2
20:14 60.7 °F /  15.9 °C 49.7 °F /  9.8 °C 29.89in /  1012.1hPa NW 1.4mph /  2.3km/h 7mph /  11.3km/h 67.1% 0.00in /  0mm 0 W/m2
20:19 60.5 °F /  15.8 °C 49.5 °F /  9.7 °C 29.89in /  1012.1hPa NW 2.6mph /  4.2km/h 8mph /  12.9km/h 67% 0.00in /  0mm 0 W/m2
20:24 60.3 °F /  15.7 °C 49.4 °F /  9.7 °C 29.89in /  1012.1hPa NW 3.5mph /  5.6km/h 13mph /  20.9km/h 67% 0.00in /  0mm 0 W/m2
20:29 60.1 °F /  15.6 °C 49.1 °F /  9.5 °C 29.89in /  1012.1hPa NNW 2mph /  3.2km/h 13mph /  20.9km/h 67% 0.00in /  0mm 0 W/m2
20:34 59.9 °F /  15.5 °C 49.1 °F /  9.5 °C 29.89in /  1012.1hPa NNW 1.9mph /  3.1km/h 13mph /  20.9km/h 67.5% 0.00in /  0mm 0 W/m2
20:39 59.7 °F /  15.4 °C 49 °F /  9.4 °C 29.89in /  1012.1hPa NNW 0.3mph /  0.5km/h 5mph /  8km/h 67.5% 0.00in /  0mm 0 W/m2
20:44 59.6 °F /  15.3 °C 49.1 °F /  9.5 °C 29.89in /  1012.1hPa NNW 0.4mph /  0.6km/h 5mph /  8km/h 68.1% 0.00in /  0mm 0 W/m2
20:49 59.5 °F /  15.3 °C 49.3 °F /  9.6 °C 29.89in /  1012.1hPa Calm   5mph /  8km/h 69% 0.00in /  0mm 0 W/m2
20:54 59.3 °F /  15.2 °C 49.1 °F /  9.5 °C 29.89in /  1012.1hPa NNW 0.1mph /  0.2km/h 5mph /  8km/h 69% 0.00in /  0mm 0 W/m2
20:59 59.1 °F /  15.1 °C 48.9 °F /  9.4 °C 29.89in /  1012.1hPa Calm   5mph /  8km/h 69% 0.00in /  0mm 0 W/m2
21:04 58.9 °F /  14.9 °C 48.7 °F /  9.3 °C 29.89in /  1012.1hPa NNW 1.8mph /  2.9km/h 6mph /  9.7km/h 69% 0.00in /  0mm 0 W/m2
21:09 58.6 °F /  14.8 °C 48.8 °F /  9.3 °C 29.89in /  1012.1hPa NNW 0.4mph /  0.6km/h 6mph /  9.7km/h 69.8% 0.00in /  0mm 0 W/m2
21:14 58.5 °F /  14.7 °C 48.8 °F /  9.3 °C 29.90in /  1012.4hPa Calm   6mph /  9.7km/h 70.1% 0.00in /  0mm 0 W/m2
21:19 58.3 °F /  14.6 °C 49 °F /  9.4 °C 29.89in /  1012.1hPa Calm   6mph /  9.7km/h 71% 0.00in /  0mm 0 W/m2
21:24 58.2 °F /  14.6 °C 48.8 °F /  9.3 °C 29.89in /  1012.1hPa NNW 0.3mph /  0.5km/h 6mph /  9.7km/h 71% 0.00in /  0mm 0 W/m2
21:29 58 °F /  14.4 °C 48.4 °F /  9.1 °C 29.89in /  1012.1hPa NNW 2.5mph /  4km/h 6mph /  9.7km/h 70.1% 0.00in /  0mm 0 W/m2
21:34 57.8 °F /  14.3 °C 48.1 °F /  8.9 °C 29.90in /  1012.4hPa NNW 1.9mph /  3.1km/h 6mph /  9.7km/h 70% 0.00in /  0mm 0 W/m2
21:39 57.7 °F /  14.3 °C 48 °F /  8.9 °C 29.90in /  1012.4hPa NW 1.6mph /  2.6km/h 6mph /  9.7km/h 70% 0.00in /  0mm 0 W/m2
21:44 57.5 °F /  14.2 °C 48.2 °F /  9 °C 29.90in /  1012.4hPa WNW 2mph /  3.2km/h 6mph /  9.7km/h 71% 0.00in /  0mm 0 W/m2
21:49 57.4 °F /  14.1 °C 48.1 °F /  8.9 °C 29.91in /  1012.8hPa Calm   6mph /  9.7km/h 71% 0.00in /  0mm 0 W/m2
21:54 57.3 °F /  14.1 °C 47.9 °F /  8.8 °C 29.91in /  1012.8hPa NW 0.4mph /  0.6km/h 6mph /  9.7km/h 70.6% 0.00in /  0mm 0 W/m2
21:59 57.2 °F /  14 °C 47.6 °F /  8.7 °C 29.91in /  1012.8hPa NW 0.3mph /  0.5km/h 6mph /  9.7km/h 70.2% 0.00in /  0mm 0 W/m2
22:04 57.1 °F /  13.9 °C 47.5 °F /  8.6 °C 29.91in /  1012.8hPa Calm   6mph /  9.7km/h 70.3% 0.00in /  0mm 0 W/m2
22:09 56.9 °F /  13.8 °C 47.3 °F /  8.5 °C 29.91in /  1012.8hPa Calm   1mph /  1.6km/h 70% 0.00in /  0mm 0 W/m2
22:14 56.8 °F /  13.8 °C 47.1 °F /  8.4 °C 29.91in /  1012.8hPa Calm   1mph /  1.6km/h 70% 0.00in /  0mm 0 W/m2
22:19 56.6 °F /  13.7 °C 47.3 °F /  8.5 °C 29.91in /  1012.8hPa Calm   1mph /  1.6km/h 70.8% 0.00in /  0mm 0 W/m2
22:24 56.4 °F /  13.6 °C 47.1 °F /  8.4 °C 29.91in /  1012.8hPa NW 0.5mph /  0.8km/h 6mph /  9.7km/h 70.9% 0.00in /  0mm 0 W/m2
22:29 56.3 °F /  13.5 °C 46.6 °F /  8.1 °C 29.91in /  1012.8hPa NNW 0.8mph /  1.3km/h 6mph /  9.7km/h 70% 0.00in /  0mm 0 W/m2
22:34 56.1 °F /  13.4 °C 46.5 °F /  8.1 °C 29.91in /  1012.8hPa NW 0.4mph /  0.6km/h 6mph /  9.7km/h 70% 0.00in /  0mm 0 W/m2
22:39 56 °F /  13.3 °C 46.3 °F /  7.9 °C 29.91in /  1012.8hPa NW 1.6mph /  2.6km/h 5mph /  8km/h 70% 0.00in /  0mm 0 W/m2
22:44 55.8 °F /  13.2 °C 46.2 °F /  7.9 °C 29.91in /  1012.8hPa NW 0.8mph /  1.3km/h 5mph /  8km/h 70% 0.00in /  0mm 0 W/m2
22:49 55.7 °F /  13.2 °C 46 °F /  7.8 °C 29.91in /  1012.8hPa Calm   5mph /  8km/h 70% 0.00in /  0mm 0 W/m2
22:54 55.5 °F /  13.1 °C 46.2 °F /  7.9 °C 29.91in /  1012.8hPa NNW 0.6mph /  1km/h 5mph /  8km/h 70.8% 0.00in /  0mm 0 W/m2
22:59 55.3 °F /  12.9 °C 46 °F /  7.8 °C 29.91in /  1012.8hPa NNW 1.8mph /  2.9km/h 6mph /  9.7km/h 71% 0.00in /  0mm 0 W/m2
23:04 55.1 °F /  12.8 °C 45.6 °F /  7.6 °C 29.91in /  1012.8hPa NNW 0.1mph /  0.2km/h 6mph /  9.7km/h 70.4% 0.00in /  0mm 0 W/m2
23:09 54.9 °F /  12.7 °C 45.1 °F /  7.3 °C 29.91in /  1012.8hPa NNW 3.3mph /  5.3km/h 10mph /  16.1km/h 69.4% 0.00in /  0mm 0 W/m2
23:14 54.8 °F /  12.7 °C 44.7 °F /  7.1 °C 29.91in /  1012.8hPa NW 1.1mph /  1.8km/h 10mph /  16.1km/h 68.6% 0.00in /  0mm 0 W/m2
23:19 54.7 °F /  12.6 °C 44.3 °F /  6.8 °C 29.91in /  1012.8hPa NW 0.7mph /  1.1km/h 10mph /  16.1km/h 68% 0.00in /  0mm 0 W/m2
23:24 54.6 °F /  12.6 °C 44.2 °F /  6.8 °C 29.91in /  1012.8hPa North 1.2mph /  1.9km/h 10mph /  16.1km/h 68% 0.00in /  0mm 0 W/m2
23:29 54.5 °F /  12.5 °C 44.2 °F /  6.8 °C 29.91in /  1012.8hPa North 1.3mph /  2.1km/h 10mph /  16.1km/h 68% 0.00in /  0mm 0 W/m2
23:34 54.4 °F /  12.4 °C 44 °F /  6.7 °C 29.91in /  1012.8hPa NNW 1.2mph /  1.9km/h 10mph /  16.1km/h 67.9% 0.00in /  0mm 0 W/m2
23:39 54.3 °F /  12.4 °C 43.9 °F /  6.6 °C 29.91in /  1012.8hPa Calm   5mph /  8km/h 67.7% 0.00in /  0mm 0 W/m2
23:44 54.2 °F /  12.3 °C 43.9 °F /  6.6 °C 29.91in /  1012.8hPa Calm   5mph /  8km/h 68% 0.00in /  0mm 0 W/m2
23:49 54.2 °F /  12.3 °C 44.1 °F /  6.7 °C 29.90in /  1012.4hPa Calm   5mph /  8km/h 68.7% 0.00in /  0mm 0 W/m2
23:54 54 °F /  12.2 °C 44.1 °F /  6.7 °C 29.90in /  1012.4hPa Calm   5mph /  8km/h 69% 0.00in /  0mm 0 W/m2
23:59 53.9 °F /  12.2 °C 44.1 °F /  6.7 °C 29.90in /  1012.4hPa Calm   5mph /  8km/h 69.2% 0.00in /  0mm 0 W/m2
Hartford County Weather
Compliments of Weather Underground - 2 mb